createdAt,value
2023-01-30T00:02:21.847Z,13.00
2023-01-30T00:04:55.303Z,13.48
2023-01-30T00:07:26.342Z,13.48
2023-01-30T00:09:57.186Z,14.07
2023-01-30T00:12:28.138Z,12.32
2023-01-30T00:14:59.101Z,13.02
2023-01-30T00:17:29.956Z,14.23
2023-01-30T00:20:03.478Z,13.55
2023-01-30T00:22:34.356Z,14.52
2023-01-30T00:25:05.378Z,17.27
2023-01-30T00:27:36.398Z,13.20
2023-01-30T00:30:07.942Z,12.88
2023-01-30T00:32:38.799Z,13.75
2023-01-30T00:35:12.899Z,13.98
2023-01-30T00:37:44.331Z,13.15
2023-01-30T00:40:16.559Z,14.15
2023-01-30T00:43:00.027Z,13.00
2023-01-30T00:45:43.119Z,12.75
2023-01-30T00:48:16.912Z,12.65
2023-01-30T00:50:50.342Z,12.15
2023-01-30T00:53:21.283Z,13.45
2023-01-30T00:55:54.858Z,11.65
2023-01-30T00:58:26.802Z,12.75
2023-01-30T01:00:58.434Z,13.13
2023-01-30T01:03:29.307Z,13.40
2023-01-30T01:06:02.729Z,12.00
2023-01-30T01:08:33.546Z,12.48
2023-01-30T01:11:04.791Z,13.15
2023-01-30T01:13:35.819Z,12.15
2023-01-30T01:16:06.850Z,12.45
2023-01-30T01:18:37.752Z,12.60
2023-01-30T01:21:13.706Z,12.93
2023-01-30T01:23:45.029Z,12.90
2023-01-30T01:26:15.983Z,12.88
2023-01-30T01:28:46.956Z,12.65
2023-01-30T01:31:19.796Z,12.88
2023-01-30T01:33:52.104Z,12.65
2023-01-30T01:36:51.733Z,12.73
2023-01-30T01:39:16.525Z,13.90
2023-01-30T01:41:44.766Z,14.82
2023-01-30T01:44:17.660Z,12.27
2023-01-30T01:46:52.306Z,13.00
2023-01-30T01:49:27.184Z,12.50
2023-01-30T01:52:04.850Z,12.63
2023-01-30T01:54:39.832Z,13.38
2023-01-30T01:57:14.381Z,11.75
2023-01-30T01:59:50.805Z,12.77
2023-01-30T02:02:23.449Z,12.85
2023-01-30T02:05:07.052Z,12.25
2023-01-30T02:07:45.478Z,14.07
2023-01-30T02:10:21.031Z,13.07
2023-01-30T02:12:53.709Z,12.35
2023-01-30T02:15:26.075Z,12.57
2023-01-30T02:17:58.645Z,12.48
2023-01-30T02:20:40.200Z,11.82
2023-01-30T02:23:32.054Z,11.95
2023-01-30T02:26:38.604Z,12.25
2023-01-30T02:29:37.900Z,12.75
2023-01-30T02:32:17.406Z,11.65
2023-01-30T02:34:55.361Z,11.43
2023-01-30T02:37:34.981Z,12.48
2023-01-30T02:40:21.379Z,11.95
2023-01-30T02:42:59.853Z,12.52
2023-01-30T02:45:37.312Z,12.02
2023-01-30T02:48:15.641Z,12.20
2023-01-30T02:50:50.912Z,11.40
2023-01-30T02:53:21.705Z,12.55
2023-01-30T02:55:52.809Z,12.13
2023-01-30T02:58:27.110Z,12.18
2023-01-30T03:01:18.709Z,12.77
2023-01-30T03:04:08.648Z,12.13
2023-01-30T03:06:57.036Z,11.93
2023-01-30T03:09:38.831Z,12.95
2023-01-30T03:12:19.674Z,12.68
2023-01-30T03:14:55.920Z,12.73
2023-01-30T03:17:29.865Z,11.90
2023-01-30T03:20:03.946Z,13.23
2023-01-30T03:22:34.792Z,13.23
2023-01-30T03:25:06.021Z,12.80
2023-01-30T03:27:38.453Z,12.90
2023-01-30T03:30:11.199Z,12.73
2023-01-30T03:32:42.108Z,16.25
2023-01-30T03:35:18.235Z,13.48
2023-01-30T03:37:50.309Z,14.55
2023-01-30T03:40:22.578Z,12.65
2023-01-30T03:42:54.205Z,14.52
2023-01-30T03:45:25.124Z,14.48
2023-01-30T03:47:56.808Z,13.20
2023-01-30T03:50:30.238Z,12.02
2023-01-30T03:53:01.124Z,13.00
2023-01-30T03:55:33.046Z,12.35
2023-01-30T03:58:04.223Z,13.13
2023-01-30T04:00:37.968Z,12.60
2023-01-30T04:03:08.926Z,13.18
2023-01-30T04:05:42.358Z,12.90
2023-01-30T04:08:15.465Z,12.85
2023-01-30T04:10:46.378Z,13.15
2023-01-30T04:13:17.738Z,14.90
2023-01-30T04:15:48.592Z,13.23
2023-01-30T04:18:38.929Z,13.02
2023-01-30T04:21:19.592Z,13.05
2023-01-30T04:23:50.643Z,12.90
2023-01-30T04:26:21.491Z,14.70
2023-01-30T04:28:52.426Z,14.73
2023-01-30T04:31:23.491Z,13.52
2023-01-30T04:34:20.697Z,14.13
2023-01-30T04:36:54.193Z,14.05
2023-01-30T04:39:25.097Z,13.52
2023-01-30T04:41:56.454Z,14.43
2023-01-30T04:44:27.591Z,14.52
2023-01-30T04:47:12.130Z,17.00
2023-01-30T04:49:43.165Z,16.27
2023-01-30T04:52:19.505Z,13.73
2023-01-30T04:54:50.423Z,16.48
2023-01-30T04:57:22.033Z,13.93
2023-01-30T04:59:54.177Z,12.55
2023-01-30T05:02:25.109Z,14.63
2023-01-30T05:04:55.871Z,13.38
2023-01-30T05:07:29.314Z,13.93
2023-01-30T05:10:00.191Z,12.65
2023-01-30T05:12:31.072Z,12.80
2023-01-30T05:15:01.982Z,12.40
2023-01-30T05:17:32.903Z,13.32
2023-01-30T05:20:03.736Z,13.23
2023-01-30T05:22:37.220Z,12.35
2023-01-30T05:25:09.437Z,12.57
2023-01-30T05:27:40.295Z,12.68
2023-01-30T05:30:12.836Z,11.73
2023-01-30T05:32:43.825Z,11.98
2023-01-30T05:35:14.877Z,15.38
2023-01-30T05:37:52.683Z,15.60
2023-01-30T05:40:23.610Z,12.75
2023-01-30T05:42:54.537Z,12.65
2023-01-30T05:45:25.444Z,12.68
2023-01-30T05:47:58.603Z,12.15
2023-01-30T05:50:32.081Z,12.60
2023-01-30T05:53:05.424Z,12.43
2023-01-30T05:55:36.306Z,12.35
2023-01-30T05:58:07.062Z,12.13
2023-01-30T06:00:37.931Z,12.32
2023-01-30T06:03:08.733Z,12.38
2023-01-30T06:05:41.470Z,12.90
2023-01-30T06:08:15.396Z,12.05
2023-01-30T06:10:46.255Z,10.80
2023-01-30T06:13:17.017Z,12.60
2023-01-30T06:15:47.929Z,10.35
2023-01-30T06:18:18.821Z,11.10
2023-01-30T06:20:51.619Z,10.82
2023-01-30T06:23:26.495Z,10.98
2023-01-30T06:25:57.802Z,11.13
2023-01-30T06:28:29.727Z,11.27
2023-01-30T06:31:00.668Z,10.88
2023-01-30T06:33:39.382Z,10.88
2023-01-30T06:36:11.109Z,11.00
2023-01-30T06:38:44.597Z,11.13
2023-01-30T06:41:15.476Z,10.93
2023-01-30T06:43:46.556Z,10.85
2023-01-30T06:46:17.613Z,10.88
2023-01-30T06:48:48.528Z,11.27
2023-01-30T06:51:20.130Z,11.27
2023-01-30T06:53:53.659Z,12.05
2023-01-30T06:56:24.620Z,12.80
2023-01-30T06:58:55.392Z,12.38
2023-01-30T07:01:28.794Z,14.73
2023-01-30T07:04:01.014Z,11.45
2023-01-30T07:06:31.899Z,11.55
2023-01-30T07:09:05.347Z,11.18
2023-01-30T07:11:36.184Z,11.90
2023-01-30T07:14:07.396Z,13.20
2023-01-30T07:16:38.392Z,12.68
2023-01-30T07:19:09.350Z,12.27
2023-01-30T07:21:40.217Z,12.68
2023-01-30T07:24:14.479Z,12.40
2023-01-30T07:26:45.345Z,13.35
2023-01-30T07:29:16.258Z,12.98
2023-01-30T07:31:47.057Z,13.85
2023-01-30T07:34:18.053Z,14.60
2023-01-30T07:36:48.792Z,13.57
2023-01-30T07:39:22.243Z,13.25
2023-01-30T07:41:53.899Z,12.40
2023-01-30T07:44:25.670Z,12.02
2023-01-30T07:46:56.470Z,14.05
2023-01-30T07:49:27.483Z,14.43
2023-01-30T07:51:58.337Z,12.63
2023-01-30T07:54:31.915Z,12.13
2023-01-30T07:57:02.830Z,13.00
2023-01-30T07:59:33.746Z,13.68
2023-01-30T08:02:04.648Z,12.23
2023-01-30T08:04:35.774Z,13.80
2023-01-30T08:07:06.962Z,12.23
2023-01-30T08:09:40.391Z,12.70
2023-01-30T08:12:11.311Z,11.50
2023-01-30T08:14:42.145Z,11.57
2023-01-30T08:17:12.973Z,12.05
2023-01-30T08:19:43.763Z,11.35
2023-01-30T08:22:15.516Z,11.45
2023-01-30T08:24:49.027Z,12.57
2023-01-30T08:27:20.090Z,11.68
2023-01-30T08:29:51.006Z,11.68
2023-01-30T08:32:21.837Z,12.15
2023-01-30T08:34:52.813Z,12.88
2023-01-30T08:37:23.693Z,14.68
2023-01-30T08:39:57.081Z,12.27
2023-01-30T08:42:28.344Z,10.63
2023-01-30T08:44:59.316Z,10.32
2023-01-30T08:47:30.286Z,11.70
2023-01-30T08:50:01.281Z,11.73
2023-01-30T08:52:32.297Z,10.85
2023-01-30T08:55:05.959Z,12.20
2023-01-30T08:57:36.857Z,10.82
2023-01-30T09:00:09.289Z,10.73
2023-01-30T09:02:40.920Z,12.70
2023-01-30T09:05:13.796Z,11.95
2023-01-30T09:07:44.681Z,12.68
2023-01-30T09:10:18.859Z,11.93
2023-01-30T09:12:50.058Z,10.40
2023-01-30T09:15:21.034Z,9.85
2023-01-30T09:17:52.032Z,9.98
2023-01-30T09:20:22.926Z,9.25
2023-01-30T09:22:53.866Z,9.80
2023-01-30T09:25:27.336Z,10.20
2023-01-30T09:27:58.537Z,11.38
2023-01-30T09:30:29.535Z,9.73
2023-01-30T09:33:00.509Z,10.10
2023-01-30T09:35:31.948Z,12.13
2023-01-30T09:38:04.570Z,11.30
2023-01-30T09:40:45.708Z,10.73
2023-01-30T09:43:29.924Z,11.13
2023-01-30T09:46:14.479Z,12.20
2023-01-30T09:48:54.146Z,11.73
2023-01-30T09:51:58.922Z,11.52
2023-01-30T09:54:34.047Z,11.93
2023-01-30T09:57:21.119Z,10.18
2023-01-30T10:00:00.384Z,9.68
2023-01-30T10:02:47.779Z,10.68
2023-01-30T10:05:18.891Z,9.95
2023-01-30T10:08:05.183Z,9.20
2023-01-30T10:11:00.750Z,9.30
2023-01-30T10:13:52.376Z,10.32
2023-01-30T10:16:28.638Z,9.55
2023-01-30T10:19:35.544Z,9.48
2023-01-30T10:22:19.306Z,9.27
2023-01-30T10:25:02.433Z,10.35
2023-01-30T10:27:35.738Z,9.57
2023-01-30T10:30:11.261Z,9.05
2023-01-30T10:32:45.483Z,8.90
2023-01-30T10:35:21.096Z,9.27
2023-01-30T10:37:59.600Z,8.90
2023-01-30T10:40:36.758Z,9.23
2023-01-30T10:43:16.126Z,9.70
2023-01-30T10:45:56.791Z,10.05
2023-01-30T10:48:55.512Z,10.50
2023-01-30T10:51:37.680Z,10.27
2023-01-30T10:54:19.285Z,10.65
2023-01-30T10:56:57.688Z,9.23
2023-01-30T10:59:38.811Z,8.02
2023-01-30T11:02:36.941Z,7.82
2023-01-30T11:05:17.621Z,8.48
2023-01-30T11:07:51.535Z,7.88
2023-01-30T11:10:25.475Z,11.70
2023-01-30T11:12:59.299Z,8.90
2023-01-30T11:15:43.072Z,11.18
2023-01-30T11:21:11.415Z,14.27
2023-01-30T11:23:45.369Z,22.05
2023-01-30T11:26:31.993Z,21.70
2023-01-30T11:29:26.519Z,11.45
2023-01-30T11:31:58.418Z,10.10
2023-01-30T11:34:32.019Z,10.52
2023-01-30T11:37:17.718Z,8.02
2023-01-30T11:39:54.379Z,10.63
2023-01-30T11:42:32.904Z,10.55
2023-01-30T11:45:16.734Z,9.93
2023-01-30T11:47:59.170Z,12.02
2023-01-30T11:50:43.153Z,8.95
2023-01-30T11:53:38.171Z,8.88
2023-01-30T11:56:13.167Z,8.43
2023-01-30T11:58:46.561Z,8.73
2023-01-30T12:01:19.191Z,8.50
2023-01-30T12:03:54.467Z,8.23
2023-01-30T12:06:33.695Z,8.70
2023-01-30T12:09:04.994Z,8.57
2023-01-30T12:11:45.540Z,8.20
2023-01-30T12:14:31.239Z,10.93
2023-01-30T12:17:09.003Z,9.32
2023-01-30T12:19:48.582Z,9.70
2023-01-30T12:22:34.524Z,11.18
2023-01-30T12:25:13.008Z,9.45
2023-01-30T12:30:36.210Z,17.63
2023-01-30T12:33:09.635Z,11.02
2023-01-30T12:35:56.290Z,10.48
2023-01-30T12:38:47.494Z,8.53
2023-01-30T12:41:40.954Z,9.00
2023-01-30T12:44:27.831Z,8.00
2023-01-30T12:47:16.946Z,7.68
2023-01-30T12:50:04.219Z,7.68
2023-01-30T12:52:52.177Z,9.23
2023-01-30T12:55:33.913Z,7.15
2023-01-30T12:58:11.606Z,7.22
2023-01-30T13:00:58.683Z,7.50
2023-01-30T13:03:38.802Z,8.02
2023-01-30T13:06:22.258Z,12.43
2023-01-30T13:09:09.920Z,8.38
2023-01-30T13:11:55.155Z,10.05
2023-01-30T13:14:36.363Z,9.15
2023-01-30T13:17:27.792Z,8.05
2023-01-30T13:20:05.516Z,7.60
2023-01-30T13:22:44.211Z,8.50
2023-01-30T13:25:25.240Z,7.70
2023-01-30T13:28:02.572Z,8.05
2023-01-30T13:30:36.588Z,7.75
2023-01-30T13:33:13.923Z,8.60
2023-01-30T13:35:49.586Z,9.27
2023-01-30T13:38:23.597Z,12.85
2023-01-30T13:40:58.077Z,10.85
2023-01-30T13:43:34.726Z,11.90
2023-01-30T13:46:10.348Z,11.77
2023-01-30T13:48:52.650Z,14.35
2023-01-30T13:51:40.586Z,14.05
2023-01-30T13:54:23.142Z,13.35
2023-01-30T13:57:00.301Z,13.27
2023-01-30T14:00:01.955Z,14.07
2023-01-30T14:03:18.127Z,13.52
2023-01-30T14:06:33.533Z,14.07
2023-01-30T14:09:09.166Z,12.52
2023-01-30T14:11:44.963Z,13.27
2023-01-30T14:14:31.182Z,14.27
2023-01-30T14:17:14.950Z,13.52
2023-01-30T14:20:01.150Z,14.32
2023-01-30T14:22:50.978Z,14.45
2023-01-30T14:25:54.289Z,12.20
2023-01-30T14:28:52.366Z,10.98
2023-01-30T14:34:47.553Z,10.07
2023-01-30T14:37:49.101Z,8.90
2023-01-30T14:41:13.022Z,9.93
2023-01-30T14:43:53.761Z,8.95
2023-01-30T14:46:54.817Z,9.50
2023-01-30T14:49:38.061Z,10.55
2023-01-30T14:52:08.991Z,9.88
2023-01-30T14:54:51.504Z,9.60
2023-01-30T14:57:32.927Z,8.63
2023-01-30T15:00:17.740Z,8.93
2023-01-30T15:02:55.714Z,8.98
2023-01-30T15:05:33.541Z,7.70
2023-01-30T15:08:11.137Z,7.90
2023-01-30T15:11:09.790Z,7.20
2023-01-30T15:14:05.237Z,7.55
2023-01-30T15:17:03.322Z,7.60
2023-01-30T15:20:06.118Z,7.70
2023-01-30T15:22:47.857Z,8.50
2023-01-30T15:25:44.459Z,9.85
2023-01-30T15:28:30.330Z,36.33
2023-01-30T15:31:11.718Z,17.90
2023-01-30T15:33:49.876Z,17.15
2023-01-30T15:36:28.263Z,28.63
2023-01-30T15:39:06.991Z,15.45
2023-01-30T15:41:43.313Z,15.40
2023-01-30T15:44:51.522Z,13.00
2023-01-30T15:47:34.506Z,10.50
2023-01-30T15:50:08.029Z,11.20
2023-01-30T15:52:45.403Z,9.18
2023-01-30T15:55:22.634Z,9.57
2023-01-30T15:57:57.347Z,10.77
2023-01-30T16:00:36.869Z,9.35
2023-01-30T16:03:09.380Z,8.27
2023-01-30T16:05:40.588Z,6.32
2023-01-30T16:08:22.920Z,6.35
2023-01-30T16:10:54.452Z,6.95
2023-01-30T16:13:26.468Z,22.45
2023-01-30T16:16:03.755Z,13.48
2023-01-30T16:18:39.740Z,5.68
2023-01-30T16:21:13.175Z,3.83
2023-01-30T16:23:46.301Z,3.00
2023-01-30T16:26:22.122Z,3.20
2023-01-30T16:28:54.554Z,4.53
2023-01-30T16:31:29.089Z,2.95
2023-01-30T16:34:00.092Z,2.63
2023-01-30T16:36:40.936Z,2.47
2023-01-30T16:39:29.711Z,2.53
2023-01-30T16:42:02.226Z,2.63
2023-01-30T16:44:35.701Z,3.17
2023-01-30T16:47:15.292Z,2.80
2023-01-30T16:49:49.601Z,2.30
2023-01-30T16:52:23.514Z,3.50
2023-01-30T16:54:56.965Z,5.82
2023-01-30T16:57:36.486Z,7.28
2023-01-30T17:00:12.061Z,4.63
2023-01-30T17:02:51.099Z,3.90
2023-01-30T17:05:25.213Z,4.78
2023-01-30T17:07:56.944Z,3.80
2023-01-30T17:10:57.484Z,3.17
2023-01-30T17:13:37.410Z,3.63
2023-01-30T17:16:28.372Z,3.25
2023-01-30T17:19:02.134Z,4.28
2023-01-30T17:21:34.936Z,3.70
2023-01-30T17:24:08.267Z,5.53
2023-01-30T17:26:41.813Z,6.80
2023-01-30T17:29:23.994Z,5.97
2023-01-30T17:32:04.986Z,4.10
2023-01-30T17:34:41.397Z,6.05
2023-01-30T17:37:18.450Z,4.97
2023-01-30T17:39:49.839Z,6.85
2023-01-30T17:42:22.619Z,3.35
2023-01-30T17:44:54.263Z,4.05
2023-01-30T17:47:25.093Z,3.60
2023-01-30T17:49:58.602Z,3.50
2023-01-30T17:52:29.477Z,3.72
2023-01-30T17:55:00.316Z,4.40
2023-01-30T17:57:31.315Z,5.95
2023-01-30T18:00:02.128Z,7.00
2023-01-30T18:02:40.140Z,5.65
2023-01-30T18:05:13.921Z,8.35
2023-01-30T18:07:45.665Z,7.30
2023-01-30T18:10:20.041Z,9.57
2023-01-30T18:12:51.031Z,9.35
2023-01-30T18:15:21.925Z,7.35
2023-01-30T18:17:55.259Z,6.05
2023-01-30T18:20:28.681Z,5.60
2023-01-30T18:22:59.542Z,4.00
2023-01-30T18:25:30.360Z,6.00
2023-01-30T18:28:03.044Z,6.72
2023-01-30T18:30:34.061Z,6.13
2023-01-30T18:33:05.469Z,6.93
2023-01-30T18:35:40.944Z,7.85
2023-01-30T18:38:11.953Z,6.43
2023-01-30T18:40:42.799Z,4.82
2023-01-30T18:43:13.667Z,6.40
2023-01-30T18:45:44.501Z,7.82
2023-01-30T18:48:15.294Z,8.40
2023-01-30T18:50:48.757Z,10.30
2023-01-30T18:53:19.524Z,17.00
2023-01-30T18:55:53.186Z,15.20
2023-01-30T18:58:24.018Z,15.57
2023-01-30T19:00:54.922Z,18.67
2023-01-30T19:03:25.732Z,27.63
2023-01-30T19:05:59.189Z,53.92
2023-01-30T19:08:30.091Z,128.55
2023-01-30T19:11:28.024Z,68.85
2023-01-30T19:13:57.083Z,31.23
2023-01-30T19:16:29.891Z,21.48
2023-01-30T19:19:01.414Z,12.18
2023-01-30T19:21:35.237Z,23.33
2023-01-30T19:24:06.869Z,176.48
2023-01-30T19:26:38.080Z,137.68
2023-01-30T19:29:09.436Z,233.43
2023-01-30T19:31:40.814Z,158.35
2023-01-30T19:34:14.665Z,71.05
2023-01-30T19:36:48.089Z,28.08
2023-01-30T19:39:18.961Z,16.63
2023-01-30T19:41:50.442Z,18.98
2023-01-30T19:44:21.591Z,19.05
2023-01-30T19:46:52.356Z,14.35
2023-01-30T19:49:23.297Z,11.07
2023-01-30T19:51:57.969Z,10.85
2023-01-30T19:54:28.935Z,10.07
2023-01-30T19:57:00.127Z,11.95
2023-01-30T19:59:31.136Z,12.02
2023-01-30T20:02:02.101Z,10.50
2023-01-30T20:04:33.059Z,10.07
2023-01-30T20:07:06.525Z,11.55
2023-01-30T20:09:37.334Z,11.15
2023-01-30T20:12:08.637Z,9.93
2023-01-30T20:14:39.701Z,9.18
2023-01-30T20:17:12.359Z,9.15
2023-01-30T20:19:43.654Z,6.20
2023-01-30T20:22:17.603Z,6.45
2023-01-30T20:24:48.724Z,5.43
2023-01-30T20:27:19.818Z,5.68
2023-01-30T20:29:50.636Z,5.18
2023-01-30T20:32:21.752Z,4.22
2023-01-30T20:34:52.907Z,3.83
2023-01-30T20:37:26.770Z,3.70
2023-01-30T20:39:57.618Z,5.28
2023-01-30T20:42:28.493Z,5.60
2023-01-30T20:44:59.359Z,7.70
2023-01-30T20:47:30.217Z,7.25
2023-01-30T20:50:01.077Z,8.40
2023-01-30T20:52:35.396Z,7.95
2023-01-30T20:55:06.266Z,8.75
2023-01-30T20:57:37.378Z,8.00
2023-01-30T21:00:10.543Z,8.07
2023-01-30T21:02:42.921Z,7.10
2023-01-30T21:05:16.840Z,7.90
2023-01-30T21:07:50.326Z,8.98
2023-01-30T21:10:21.317Z,10.10
2023-01-30T21:12:52.177Z,10.23
2023-01-30T21:15:22.933Z,10.90
2023-01-30T21:17:54.211Z,9.80
2023-01-30T21:20:25.143Z,9.80
2023-01-30T21:22:58.693Z,5.07
2023-01-30T21:25:29.759Z,4.25
2023-01-30T21:28:00.604Z,6.15
2023-01-30T21:30:31.664Z,7.78
2023-01-30T21:33:02.574Z,6.60
2023-01-30T21:35:33.439Z,6.95
2023-01-30T21:38:19.245Z,9.68
2023-01-30T21:41:05.895Z,8.13
2023-01-30T21:43:36.728Z,6.27
2023-01-30T21:46:08.355Z,5.78
2023-01-30T21:48:39.158Z,6.63
2023-01-30T21:51:15.155Z,7.20
2023-01-30T21:53:48.951Z,7.27
2023-01-30T21:56:19.984Z,7.47
2023-01-30T21:58:51.083Z,6.80
2023-01-30T22:01:22.170Z,7.63
2023-01-30T22:03:53.365Z,7.68
2023-01-30T22:06:24.791Z,7.45
2023-01-30T22:09:01.086Z,8.45
2023-01-30T22:11:32.793Z,9.30
2023-01-30T22:14:03.792Z,8.57
2023-01-30T22:16:36.308Z,8.30
2023-01-30T22:19:08.253Z,7.80
2023-01-30T22:21:41.037Z,10.18
2023-01-30T22:24:14.643Z,10.05
2023-01-30T22:26:45.602Z,9.48
2023-01-30T22:29:18.293Z,9.68
2023-01-30T22:31:49.620Z,8.02
2023-01-30T22:34:20.845Z,7.45
2023-01-30T22:36:51.926Z,8.90
2023-01-30T22:39:25.574Z,10.52
2023-01-30T22:41:56.468Z,8.45
2023-01-30T22:44:27.309Z,6.28
2023-01-30T22:46:58.658Z,8.32
2023-01-30T22:49:29.718Z,8.68
2023-01-30T22:52:01.925Z,8.07
2023-01-30T22:54:35.839Z,7.75
2023-01-30T22:57:06.698Z,7.93
2023-01-30T22:59:38.178Z,6.55
2023-01-30T23:02:10.508Z,7.35
2023-01-30T23:04:41.447Z,6.80
2023-01-30T23:07:14.504Z,6.05
2023-01-30T23:09:47.904Z,5.95
2023-01-30T23:12:30.980Z,8.57
2023-01-30T23:15:01.853Z,6.47
2023-01-30T23:17:45.003Z,6.82
2023-01-30T23:20:16.456Z,8.23
2023-01-30T23:22:47.286Z,7.70
2023-01-30T23:25:21.191Z,6.30
2023-01-30T23:27:52.153Z,6.10
2023-01-30T23:30:23.246Z,6.60
2023-01-30T23:32:54.073Z,7.35
2023-01-30T23:35:25.029Z,6.93
2023-01-30T23:38:08.100Z,6.90
2023-01-30T23:40:41.721Z,9.18
2023-01-30T23:43:13.459Z,11.20
2023-01-30T23:45:45.025Z,10.18
2023-01-30T23:48:16.004Z,11.00
2023-01-30T23:50:46.879Z,8.98
2023-01-30T23:53:17.617Z,9.38
2023-01-30T23:55:56.751Z,7.55
2023-01-30T23:58:27.560Z,7.43
